Time;durP1;ratioP1;P1;durP2;ratioP2;P2;SDS_P1;SDS_P2;PMS_P1;PMS_P2;Temp;Humidity;BMP_temperature;BMP_pressure;BME280_temperature;BME280_humidity;BME280_pressure;Samples;Min_cycle;Max_cycle;Signal;HPM_P1;HPM_P2
2023/09/20 00:03:25;;;;;;;2.03;0.80;;;;;;;19.54;59.03;99885.81;10304890;28;20046;-64
2023/09/20 00:08:29;;;;;;;1.73;0.82;;;;;;;19.45;59.34;99870.78;10303675;28;20054;-63
2023/09/20 00:13:32;;;;;;;1.90;0.57;;;;;;;19.38;59.51;99855.34;10302339;28;20153;-63
2023/09/20 00:18:34;;;;;;;1.67;0.65;;;;;;;19.45;59.64;99870.78;10307153;28;20478;-64
2023/09/20 00:23:35;;;;;;;2.10;0.60;;;;;;;19.46;59.55;99883.25;10308199;28;20569;-63
2023/09/20 00:28:39;;;;;;;2.35;0.50;;;;;;;19.40;59.63;99880.28;10308288;28;20061;-64
2023/09/20 00:33:41;;;;;;;;;;;;;;;19.40;59.99;99877.56;10309391;28;20052;-63
2023/09/20 00:38:45;;;;;;;2.90;0.60;;;;;;;19.45;59.90;99876.19;10308601;28;20027;-63
2023/09/20 00:43:46;;;;;;;2.47;0.80;;;;;;;19.48;59.73;99871.22;10304333;28;20046;-63
2023/09/20 00:48:50;;;;;;;3.38;0.68;;;;;;;19.45;60.04;99871.59;10304634;28;20054;-65
2023/09/20 00:53:55;;;;;;;1.00;0.47;;;;;;;19.47;60.10;99869.56;10304583;28;20050;-63
2023/09/20 00:58:57;;;;;;;2.15;0.55;;;;;;;19.47;60.07;99880.38;10301309;28;20050;-62
2023/09/20 01:03:58;;;;;;;1.38;0.63;;;;;;;19.56;60.06;99894.56;10302971;28;20135;-64
2023/09/20 01:09:00;;;;;;;3.75;0.60;;;;;;;19.54;59.96;99883.94;10310859;28;20171;-63
2023/09/20 01:14:01;;;;;;;2.35;0.80;;;;;;;19.55;59.95;99891.03;10300416;28;20116;-64
2023/09/20 01:19:04;;;;;;;2.38;1.00;;;;;;;19.58;60.34;99887.13;10303193;28;20084;-63
2023/09/20 01:24:08;;;;;;;0.98;0.40;;;;;;;19.55;60.28;99890.19;10303634;28;20046;-63
2023/09/20 01:29:09;;;;;;;0.70;0.53;;;;;;;19.49;60.70;99889.09;10305876;28;20136;-65
2023/09/20 01:34:11;;;;;;;1.42;0.68;;;;;;;19.44;60.68;99880.72;10301903;28;20058;-63
2023/09/20 01:39:12;;;;;;;3.58;0.50;;;;;;;19.38;60.78;99876.94;10303402;28;20676;-63
2023/09/20 01:44:14;;;;;;;1.95;0.52;;;;;;;19.36;60.98;99864.66;10302503;28;20177;-63
2023/09/20 01:49:17;;;;;;;1.75;0.77;;;;;;;19.31;61.11;99869.81;10301367;28;20069;-64
2023/09/20 01:54:19;;;;;;;1.67;0.70;;;;;;;19.26;61.40;99873.06;10306270;28;20078;-64
2023/09/20 01:59:21;;;;;;;1.35;0.60;;;;;;;19.29;61.79;99866.44;10305865;28;20144;-63
2023/09/20 02:04:22;;;;;;;2.25;0.80;;;;;;;19.30;61.58;99847.34;10309935;28;20054;-68
2023/09/20 02:09:24;;;;;;;4.30;0.55;;;;;;;19.28;61.31;99837.81;10306644;28;20133;-64
2023/09/20 02:14:25;;;;;;;0.90;0.57;;;;;;;19.16;61.64;99832.88;10309049;28;20107;-63
2023/09/20 02:19:26;;;;;;;2.10;0.68;;;;;;;19.29;61.89;99853.81;10309052;28;20054;-65
2023/09/20 02:24:28;;;;;;;1.73;0.98;;;;;;;19.33;62.13;99846.97;10313838;28;20057;-61
2023/09/20 02:29:30;;;;;;;2.15;0.82;;;;;;;19.32;62.33;99856.13;10312916;28;20053;-63
2023/09/20 02:34:31;;;;;;;1.77;0.73;;;;;;;19.31;62.27;99851.72;10310557;28;20425;-63
2023/09/20 02:39:33;;;;;;;1.50;0.70;;;;;;;19.30;62.42;99850.06;10310847;28;20092;-64
2023/09/20 02:44:35;;;;;;;2.22;0.95;;;;;;;19.35;62.31;99850.34;10312799;28;20885;-62
2023/09/20 02:49:36;;;;;;;1.20;0.70;;;;;;;19.32;62.27;99839.94;10309576;28;20046;-64
2023/09/20 02:54:37;;;;;;;2.05;0.90;;;;;;;19.28;62.61;99849.41;10310690;28;20069;-63
2023/09/20 02:59:39;;;;;;;1.60;0.77;;;;;;;19.17;62.72;99823.78;10312821;28;20639;-63
2023/09/20 03:04:41;;;;;;;2.08;0.70;;;;;;;19.23;63.12;99830.25;10308743;28;20053;-65
2023/09/20 03:09:45;;;;;;;3.45;0.95;;;;;;;19.19;63.23;99824.41;10307310;28;20056;-63
2023/09/20 03:14:50;;;;;;;1.35;0.80;;;;;;;19.05;63.57;99820.72;10307103;28;20057;-64
2023/09/20 03:19:53;;;;;;;2.25;1.00;;;;;;;19.11;63.63;99820.97;10305936;28;20038;-64
2023/09/20 03:24:55;;;;;;;1.90;1.20;;;;;;;19.00;64.10;99804.25;10307584;28;20068;-64
2023/09/20 03:29:57;;;;;;;1.45;0.73;;;;;;;18.87;64.41;99796.00;10308603;28;20742;-63
2023/09/20 03:34:59;;;;;;;2.10;1.00;;;;;;;18.98;64.62;99809.03;10306333;28;20346;-64
2023/09/20 03:40:00;;;;;;;2.70;1.00;;;;;;;18.99;64.36;99809.84;10310014;28;20065;-63
2023/09/20 03:45:02;;;;;;;2.15;1.00;;;;;;;18.98;65.05;99808.19;10304764;28;20075;-64
2023/09/20 03:50:05;;;;;;;3.05;1.42;;;;;;;18.97;65.05;99799.25;10310167;28;20050;-63
2023/09/20 03:55:07;;;;;;;2.47;1.48;;;;;;;18.96;65.41;99807.53;10311828;28;20050;-64
2023/09/20 04:00:28;;;;;;;1.98;1.05;;;;;;;18.94;65.67;99801.50;10310343;28;20545;-64
2023/09/20 04:05:31;;;;;;;2.50;0.93;;;;;;;18.94;65.66;99794.25;10310217;28;20731;-64
2023/09/20 04:10:45;;;;;;;2.80;1.10;;;;;;;18.84;65.69;99788.28;10308870;28;20359;-64
2023/09/20 04:15:47;;;;;;;2.60;1.52;;;;;;;18.89;66.24;99802.91;10308424;28;20050;-62
2023/09/20 04:20:51;;;;;;;2.67;1.40;;;;;;;18.85;66.46;99807.00;10315168;28;20073;-64
2023/09/20 04:25:55;;;;;;;1.50;1.08;;;;;;;18.79;66.83;99798.78;10306961;28;20511;-63
2023/09/20 04:30:57;;;;;;;4.03;1.13;;;;;;;18.77;67.08;99790.06;10305901;28;20050;-64
2023/09/20 04:36:00;;;;;;;1.92;1.17;;;;;;;18.72;66.64;99785.25;10315835;28;20050;-64
2023/09/20 04:41:02;;;;;;;;;;;;;;;18.84;67.02;99793.66;10314428;28;20046;-64
2023/09/20 04:46:04;;;;;;;2.55;1.60;;;;;;;18.83;67.02;99792.00;10310858;28;19932;-63
2023/09/20 04:51:05;;;;;;;1.90;1.40;;;;;;;18.75;67.42;99794.78;10310787;28;20517;-63
2023/09/20 04:56:07;;;;;;;4.07;1.50;;;;;;;18.73;67.35;99787.75;10307823;28;20133;-63
2023/09/20 05:01:14;;;;;;;6.38;2.17;;;;;;;18.71;67.38;99794.34;10306359;28;20254;-63
2023/09/20 05:06:17;;;;;;;4.75;1.75;;;;;;;18.72;67.61;99802.25;10310448;28;20053;-63
2023/09/20 05:11:19;;;;;;;1.90;1.20;;;;;;;18.71;67.62;99805.13;10303714;28;20046;-64
2023/09/20 05:16:21;;;;;;;2.58;1.40;;;;;;;18.75;67.37;99794.78;10349677;28;20288;-64
2023/09/20 05:21:22;;;;;;;2.33;1.52;;;;;;;18.67;67.52;99796.56;10353278;28;20072;-63
2023/09/20 05:26:24;;;;;;;3.00;1.55;;;;;;;18.66;67.96;99800.31;10349083;28;20112;-63
2023/09/20 05:31:26;;;;;;;2.50;1.55;;;;;;;18.63;67.52;99794.44;10349271;28;20045;-64
2023/09/20 05:36:28;;;;;;;2.85;1.65;;;;;;;18.58;67.29;99805.78;10353502;28;20057;-64
2023/09/20 05:41:29;;;;;;;2.25;1.30;;;;;;;18.49;67.99;99806.91;10354554;28;20046;-64
2023/09/20 05:46:31;;;;;;;6.55;1.65;;;;;;;18.54;67.88;99804.50;10332746;28;20104;-64
2023/09/20 05:51:32;;;;;;;2.40;1.73;;;;;;;18.49;67.89;99807.72;10353111;28;20555;-62
2023/09/20 05:56:35;;;;;;;3.38;1.67;;;;;;;18.53;67.92;99794.75;10354043;28;20062;-63
2023/09/20 06:01:40;;;;;;;3.08;1.90;;;;;;;18.57;67.84;99798.75;10355834;28;20652;-63
2023/09/20 06:06:41;;;;;;;4.38;2.08;;;;;;;18.55;67.93;99808.84;10346290;28;20045;-64
2023/09/20 06:11:42;;;;;;;3.03;1.60;;;;;;;18.50;68.17;99787.03;10341541;28;20147;-64
2023/09/20 06:16:44;;;;;;;2.45;1.20;;;;;;;18.49;68.26;99790.72;10352785;28;20560;-65
2023/09/20 06:21:47;;;;;;;6.05;1.60;;;;;;;18.41;67.85;99783.59;10352212;28;20054;-64
2023/09/20 06:26:48;;;;;;;2.08;1.27;;;;;;;18.46;67.72;99797.31;10354904;28;20148;-64
2023/09/20 06:31:50;;;;;;;2.60;1.63;;;;;;;18.59;68.22;99796.69;10350680;28;20139;-63
2023/09/20 06:36:51;;;;;;;2.67;1.30;;;;;;;18.58;67.67;99800.38;10355572;28;20068;-63
2023/09/20 06:41:53;;;;;;;3.42;1.70;;;;;;;18.49;67.55;99785.34;10348040;28;20069;-65
2023/09/20 06:46:54;;;;;;;9.48;2.42;;;;;;;18.58;67.56;99810.34;10338708;28;20058;-65
2023/09/20 06:51:57;;;;;;;3.40;1.83;;;;;;;18.61;67.66;99808.09;10340890;28;20111;-63
2023/09/20 06:57:02;;;;;;;2.53;1.63;;;;;;;18.47;67.86;99782.84;10353739;28;20658;-64
2023/09/20 07:02:07;;;;;;;3.85;1.23;;;;;;;18.58;67.83;99800.38;10352174;28;20053;-63
2023/09/20 07:07:10;;;;;;;2.72;1.30;;;;;;;18.71;67.49;99795.19;10351583;28;20064;-65
2023/09/20 07:12:11;;;;;;;3.97;1.40;;;;;;;18.68;67.48;99792.03;10350060;28;20136;-64
2023/09/20 07:17:14;;;;;;;2.35;1.73;;;;;;;18.58;67.69;99784.22;10334571;28;20053;-63
2023/09/20 07:22:16;;;;;;;6.05;2.03;;;;;;;18.70;67.67;99774.63;10351805;28;20049;-64
2023/09/20 07:27:18;;;;;;;4.72;1.90;;;;;;;18.84;67.01;99788.28;10332841;28;20045;-63
2023/09/20 07:32:20;;;;;;;4.25;1.70;;;;;;;18.96;66.90;99803.00;10354165;28;20101;-64
2023/09/20 07:37:21;;;;;;;4.65;1.33;;;;;;;18.94;67.02;99788.84;10347066;28;20606;-65
2023/09/20 07:42:23;;;;;;;2.83;1.35;;;;;;;19.03;66.37;99774.22;10345906;28;20057;-65
2023/09/20 07:47:27;;;;;;;4.18;1.80;;;;;;;19.11;66.36;99775.13;10351535;28;20061;-63
2023/09/20 07:52:28;;;;;;;4.60;1.70;;;;;;;19.07;66.09;99777.38;10328386;28;20057;-64
2023/09/20 07:57:30;;;;;;;4.43;2.28;;;;;;;19.15;66.49;99787.22;10346072;28;20674;-64
2023/09/20 08:02:31;;;;;;;3.47;1.35;;;;;;;19.22;66.33;99793.53;10331850;28;20750;-64
2023/09/20 08:07:38;;;;;;;5.05;1.90;;;;;;;19.28;65.97;99803.56;10355239;28;20076;-64
2023/09/20 08:12:39;;;;;;;3.10;1.77;;;;;;;19.34;65.87;99789.28;10385157;28;20100;-64
2023/09/20 09:00:46;;;;;;;2.88;1.20;;;;;;;20.70;61.17;99760.38;10306237;28;20046;-63
2023/09/20 09:05:47;;;;;;;3.15;1.58;;;;;;;20.73;60.92;99766.25;10302999;28;20531;-64
2023/09/20 09:10:49;;;;;;;1.83;0.93;;;;;;;20.72;60.82;99771.84;10302488;28;20342;-64
2023/09/20 09:15:50;;;;;;;2.00;1.10;;;;;;;20.79;60.52;99760.00;10300156;28;20524;-65
2023/09/20 09:20:52;;;;;;;2.25;1.00;;;;;;;21.10;60.30;99758.63;10306823;28;20334;-64
2023/09/20 09:25:54;;;;;;;1.90;1.02;;;;;;;21.21;60.27;99753.66;10307756;28;20050;-64
2023/09/20 09:30:55;;;;;;;2.35;1.15;;;;;;;21.23;59.46;99740.75;10296886;28;20317;-63
2023/09/20 09:35:57;;;;;;;2.25;0.88;;;;;;;21.54;59.14;99751.88;10304059;28;20626;-65
2023/09/20 09:40:59;;;;;;;3.55;0.90;;;;;;;21.65;58.56;99741.47;10302285;28;20057;-64
2023/09/20 09:46:10;;;;;;;2.95;0.98;;;;;;;21.78;58.04;99738.72;10311279;28;20523;-63
2023/09/20 09:51:14;;;;;;;3.45;1.20;;;;;;;22.18;56.87;99762.25;10300660;28;20054;-63
2023/09/20 09:56:16;;;;;;;2.58;2.03;;;;;;;22.50;56.80;99748.81;10302084;28;20463;-63
2023/09/20 10:01:21;;;;;;;3.78;1.20;;;;;;;22.68;55.43;99737.28;10301600;28;20054;-63
2023/09/20 10:06:27;;;;;;;4.05;1.08;;;;;;;23.19;54.48;99720.09;10301768;28;20073;-63
2023/09/20 10:11:29;;;;;;;2.65;1.10;;;;;;;23.12;53.91;99713.91;10301943;28;20521;-63
2023/09/20 10:16:31;;;;;;;1.95;1.00;;;;;;;23.04;54.76;99706.00;10317925;28;20135;-64
2023/09/20 10:21:33;;;;;;;2.63;1.08;;;;;;;23.25;54.61;99702.94;10305169;28;20068;-63
2023/09/20 10:26:38;;;;;;;2.22;0.98;;;;;;;23.55;53.44;99694.13;10310635;28;20042;-63
2023/09/20 10:31:39;;;;;;;1.52;0.63;;;;;;;23.92;53.67;99696.97;10318011;28;20062;-62
2023/09/20 10:37:11;;;;;;;3.13;1.52;;;;;;;24.19;52.31;99688.53;10308486;28;20076;-63
2023/09/20 10:42:12;;;;;;;1.40;0.70;;;;;;;24.12;52.08;99685.03;10325108;28;20282;-64
2023/09/20 10:47:16;;;;;;;1.10;0.50;;;;;;;24.30;51.35;99693.19;10312610;28;20408;-64
2023/09/20 10:52:32;;;;;;;2.35;0.65;;;;;;;24.49;50.72;99688.56;10308047;28;20646;-63
2023/09/20 10:57:34;;;;;;;2.10;0.88;;;;;;;24.70;49.24;99670.94;10291580;28;20043;-64
2023/09/20 11:02:38;;;;;;;1.05;0.60;;;;;;;25.21;49.38;99681.53;10309488;28;20061;-64
2023/09/20 11:07:42;;;;;;;2.22;0.70;;;;;;;24.99;48.43;99662.97;10295463;28;20065;-64
2023/09/20 11:12:44;;;;;;;2.38;0.50;;;;;;;25.01;49.32;99671.78;10306100;28;20477;-65
2023/09/20 11:17:47;;;;;;;1.67;0.75;;;;;;;25.15;49.04;99653.31;10347510;28;20056;-64
2023/09/20 11:22:49;;;;;;;1.92;0.68;;;;;;;25.55;46.76;99649.97;10345957;28;20505;-66
2023/09/20 11:27:50;;;;;;;0.90;0.50;;;;;;;26.00;45.33;99643.09;10343087;28;20152;-64
2023/09/20 11:32:52;;;;;;;2.83;0.60;;;;;;;26.13;45.87;99613.88;10343239;28;20435;-64
2023/09/20 11:37:54;;;;;;;1.02;0.40;;;;;;;26.45;45.12;99638.78;10352342;28;20178;-64
2023/09/20 11:42:56;;;;;;;2.22;0.73;;;;;;;26.48;45.09;99634.75;10333923;28;20049;-62
2023/09/20 11:47:58;;;;;;;3.17;0.60;;;;;;;26.67;44.18;99628.03;10350238;28;20062;-64
2023/09/20 11:53:00;;;;;;;2.70;0.70;;;;;;;27.43;42.80;99635.06;10345512;28;20445;-63
2023/09/20 11:58:01;;;;;;;1.95;0.70;;;;;;;27.92;41.86;99615.25;10343313;28;20144;-63
2023/09/20 12:03:03;;;;;;;1.52;0.57;;;;;;;28.34;40.32;99625.63;10350208;28;20098;-64
2023/09/20 12:08:06;;;;;;;1.37;0.50;;;;;;;28.18;39.71;99609.06;10347895;28;20075;-63
2023/09/20 12:13:07;;;;;;;3.22;0.40;;;;;;;28.37;39.88;99597.75;10347125;28;21550;-64
2023/09/20 12:18:13;;;;;;;1.53;0.60;;;;;;;28.35;39.64;99587.06;10345826;28;20543;-63
2023/09/20 12:23:17;;;;;;;1.15;0.60;;;;;;;28.53;39.47;99588.63;10342046;28;20125;-63
2023/09/20 12:28:19;;;;;;;3.08;0.50;;;;;;;27.75;42.14;99582.50;10344691;28;20069;-64
2023/09/20 12:33:20;;;;;;;2.35;0.73;;;;;;;26.67;42.98;99564.44;10346896;28;20058;-63
2023/09/20 12:38:22;;;;;;;2.38;0.77;;;;;;;26.23;44.06;99573.19;10347564;28;20054;-62
2023/09/20 12:43:25;;;;;;;2.58;0.70;;;;;;;26.27;43.74;99550.63;10346767;28;20045;-63
2023/09/20 12:48:26;;;;;;;1.10;0.50;;;;;;;25.74;45.18;99544.34;10343867;28;20594;-64
2023/09/20 12:53:28;;;;;;;1.87;0.60;;;;;;;25.51;45.95;99537.06;10347088;28;20591;-62
2023/09/20 12:58:29;;;;;;;1.85;0.75;;;;;;;25.79;44.81;99538.19;10326870;28;20069;-63
2023/09/20 13:03:31;;;;;;;5.53;0.93;;;;;;;27.00;42.31;99511.75;10329488;28;20069;-63
2023/09/20 13:08:33;;;;;;;2.47;0.77;;;;;;;28.22;40.04;99510.84;10305383;28;20050;-64
2023/09/20 13:13:36;;;;;;;1.35;0.55;;;;;;;28.21;39.76;99504.56;10303771;28;20372;-65
2023/09/20 13:18:38;;;;;;;2.10;0.90;;;;;;;29.60;37.30;99505.59;10345825;28;20054;-64
2023/09/20 13:23:40;;;;;;;1.60;0.50;;;;;;;30.50;34.80;99495.44;10343725;28;20140;-64
2023/09/20 13:28:42;;;;;;;1.83;0.60;;;;;;;29.43;36.28;99492.09;10340955;28;20551;-63
2023/09/20 13:33:44;;;;;;;1.73;0.90;;;;;;;29.04;37.68;99488.84;10335894;28;20390;-66
2023/09/20 13:38:46;;;;;;;5.15;0.60;;;;;;;28.74;37.69;99471.09;10334948;28;20050;-64
2023/09/20 13:43:47;;;;;;;4.47;0.70;;;;;;;28.21;38.21;99458.06;10331110;28;20564;-64
2023/09/20 13:48:49;;;;;;;1.90;0.40;;;;;;;27.95;38.18;99456.13;10346376;28;20053;-64
2023/09/20 13:53:51;;;;;;;;;;;;;;;27.95;37.87;99450.66;10347222;28;20554;-64
2023/09/20 13:58:54;;;;;;;1.95;0.80;;;;;;;28.05;38.46;99442.59;10352686;28;19928;-62
2023/09/20 14:03:55;;;;;;;1.83;0.80;;;;;;;27.75;38.79;99430.22;10343795;28;20061;-64
2023/09/20 14:08:58;;;;;;;1.20;0.55;;;;;;;27.48;39.67;99431.00;10331686;28;20050;-64
2023/09/20 14:14:01;;;;;;;4.50;0.80;;;;;;;27.28;40.50;99428.00;10345477;28;20143;-64
2023/09/20 14:19:04;;;;;;;1.58;0.95;;;;;;;26.96;40.84;99401.34;10351730;28;20129;-64
2023/09/20 14:24:05;;;;;;;2.27;0.80;;;;;;;26.65;40.62;99411.84;10352721;28;20398;-63
2023/09/20 14:29:10;;;;;;;2.30;0.80;;;;;;;26.52;41.63;99401.25;10342525;28;20069;-62
2023/09/20 14:34:13;;;;;;;2.45;0.90;;;;;;;26.40;41.77;99398.63;10350162;28;20587;-62
2023/09/20 14:39:15;;;;;;;1.98;0.80;;;;;;;26.33;42.08;99397.94;10353378;28;20662;-64
2023/09/20 14:44:17;;;;;;;3.28;0.70;;;;;;;26.24;42.50;99395.66;10348443;28;20541;-64
2023/09/20 14:49:18;;;;;;;2.75;0.93;;;;;;;26.06;42.59;99382.22;10351350;28;20054;-67
2023/09/20 14:54:22;;;;;;;2.30;0.75;;;;;;;25.84;42.57;99373.94;10339991;28;20212;-64
2023/09/20 14:59:24;;;;;;;1.67;0.85;;;;;;;25.64;43.45;99372.50;10350935;28;20793;-63
2023/09/20 15:04:25;;;;;;;2.70;1.00;;;;;;;25.47;43.40;99366.16;10351523;28;20157;-64
2023/09/20 15:09:27;;;;;;;2.03;1.02;;;;;;;25.38;43.88;99355.63;10347910;28;20045;-64
2023/09/20 15:14:29;;;;;;;2.83;1.20;;;;;;;25.44;43.88;99353.03;10335508;28;20136;-63
2023/09/20 15:19:30;;;;;;;3.13;1.02;;;;;;;25.31;42.94;99354.97;10337689;28;20432;-64
2023/09/20 15:24:33;;;;;;;2.38;1.02;;;;;;;25.20;42.64;99348.44;10352434;28;20073;-63
2023/09/20 15:29:34;;;;;;;2.17;1.00;;;;;;;25.13;42.99;99342.34;10328637;28;20648;-62
2023/09/20 15:34:37;;;;;;;3.70;1.05;;;;;;;25.09;43.13;99334.91;10348607;28;20136;-63
2023/09/20 15:39:38;;;;;;;3.85;0.93;;;;;;;25.03;42.75;99329.34;10336232;28;20053;-65
2023/09/20 15:44:40;;;;;;;1.55;1.20;;;;;;;24.98;43.41;99333.84;10349835;28;20140;-63
2023/09/20 15:49:42;;;;;;;3.40;1.10;;;;;;;24.92;43.12;99329.34;10348615;28;20456;-66
2023/09/20 15:54:44;;;;;;;3.42;1.58;;;;;;;24.86;43.32;99325.69;10335706;28;20449;-65
2023/09/20 15:59:45;;;;;;;1.90;0.85;;;;;;;24.81;43.10;99318.25;10345590;28;20187;-63
2023/09/20 16:04:47;;;;;;;2.75;0.85;;;;;;;24.83;43.00;99312.56;10349783;28;20060;-64
2023/09/20 16:09:48;;;;;;;1.70;1.25;;;;;;;24.81;43.58;99306.56;10347124;28;20045;-63
2023/09/20 16:14:52;;;;;;;;;;;;;;;24.77;42.89;99302.66;10347418;28;20053;-65
2023/09/20 16:19:54;;;;;;;1.67;1.33;;;;;;;24.73;43.78;99302.31;10350187;28;19936;-63
2023/09/20 16:24:56;;;;;;;3.53;1.23;;;;;;;24.58;42.89;99280.19;10327128;28;20058;-62
2023/09/20 16:29:57;;;;;;;1.92;0.80;;;;;;;24.57;43.26;99289.41;10338368;28;20062;-63
2023/09/20 16:34:59;;;;;;;2.85;1.30;;;;;;;24.47;43.51;99276.41;10347613;28;20407;-63
2023/09/20 16:40:00;;;;;;;1.90;1.10;;;;;;;24.42;43.84;99279.03;10347808;28;20053;-63
2023/09/20 16:45:02;;;;;;;1.30;0.82;;;;;;;24.47;44.16;99284.56;10332576;28;20652;-62
2023/09/20 16:50:05;;;;;;;3.42;0.98;;;;;;;24.34;44.29;99272.88;10345526;28;21524;-63
2023/09/20 16:55:09;;;;;;;1.83;1.47;;;;;;;24.34;44.76;99278.31;10347157;28;20069;-63
2023/09/20 17:00:11;;;;;;;3.13;1.17;;;;;;;24.30;44.64;99279.84;10344720;28;20284;-62
2023/09/20 17:05:14;;;;;;;2.40;1.35;;;;;;;24.24;44.56;99274.56;10341552;28;20374;-64
2023/09/20 17:10:18;;;;;;;2.78;1.60;;;;;;;24.18;44.95;99279.03;10303596;28;20081;-64
2023/09/20 17:15:21;;;;;;;2.03;1.00;;;;;;;24.12;44.91;99277.28;10302139;28;20116;-63
2023/09/20 17:20:23;;;;;;;1.65;0.80;;;;;;;24.01;45.48;99270.78;10300292;28;20064;-63
2023/09/20 17:25:25;;;;;;;2.97;1.63;;;;;;;23.75;45.37;99233.97;10302481;28;20564;-65
2023/09/20 17:30:26;;;;;;;3.13;1.08;;;;;;;23.83;45.61;99249.94;10311675;28;20077;-64
2023/09/20 17:35:28;;;;;;;2.13;1.30;;;;;;;23.85;45.74;99255.97;10318080;28;20508;-65
2023/09/20 17:40:29;;;;;;;2.78;1.60;;;;;;;23.63;46.01;99231.25;10315372;28;20592;-63
2023/09/20 17:45:31;;;;;;;2.80;1.75;;;;;;;23.67;46.07;99256.06;10318283;28;20050;-64
2023/09/20 17:50:32;;;;;;;3.70;1.58;;;;;;;23.58;46.01;99250.94;10315424;28;20065;-63
2023/09/20 17:55:35;;;;;;;2.85;1.73;;;;;;;23.56;46.01;99258.50;10333585;28;20132;-63
2023/09/20 18:00:36;;;;;;;2.35;1.05;;;;;;;23.52;46.08;99262.75;10318989;28;20120;-63
2023/09/20 18:05:38;;;;;;;5.55;3.17;;;;;;;23.34;46.32;99251.97;10320264;28;20286;-63
2023/09/20 18:10:39;;;;;;;2.25;1.48;;;;;;;23.35;46.17;99268.03;10317237;28;20049;-64
2023/09/20 18:15:41;;;;;;;2.60;1.70;;;;;;;23.32;46.44;99264.94;10319057;28;20136;-64
2023/09/20 18:20:47;;;;;;;4.30;1.73;;;;;;;23.25;46.27;99257.69;10317709;28;20327;-63
2023/09/20 18:25:49;;;;;;;3.60;1.63;;;;;;;23.21;46.81;99259.25;10346864;28;20680;-62
2023/09/20 18:30:51;;;;;;;2.72;1.85;;;;;;;23.16;46.84;99259.09;10355352;28;20277;-64
2023/09/20 18:35:52;;;;;;;3.47;1.73;;;;;;;23.14;47.00;99271.25;10356606;28;20049;-62
2023/09/20 18:40:53;;;;;;;4.47;1.70;;;;;;;22.99;47.09;99263.50;10343492;28;20061;-64
2023/09/20 18:45:55;;;;;;;3.20;1.60;;;;;;;22.98;47.58;99262.63;10349138;28;20117;-63
2023/09/20 18:50:56;;;;;;;2.70;1.70;;;;;;;23.00;47.74;99267.84;10353258;28;20124;-63
2023/09/20 18:55:59;;;;;;;4.28;2.00;;;;;;;22.88;48.19;99252.34;10348085;28;20057;-63
2023/09/20 19:01:20;;;;;;;2.90;2.08;;;;;;;22.91;48.43;99273.59;10348922;28;20068;-63
2023/09/20 19:06:21;;;;;;;2.85;1.90;;;;;;;22.86;48.75;99265.28;10308134;28;20755;-63
2023/09/20 19:11:25;;;;;;;5.43;2.00;;;;;;;22.81;49.21;99256.22;10316676;28;20065;-64
2023/09/20 19:16:28;;;;;;;3.78;2.10;;;;;;;22.77;49.30;99266.66;10307329;28;20045;-64
2023/09/20 19:21:30;;;;;;;3.58;2.13;;;;;;;22.59;49.87;99240.38;10304605;28;20049;-62
2023/09/20 19:26:32;;;;;;;2.90;1.80;;;;;;;22.66;50.05;99259.31;10304617;28;20239;-66
2023/09/20 19:31:34;;;;;;;4.60;1.83;;;;;;;22.62;50.48;99258.09;10312239;28;20057;-62
2023/09/20 19:36:35;;;;;;;4.53;1.65;;;;;;;22.55;50.21;99252.75;10308777;28;20471;-63
2023/09/20 19:41:37;;;;;;;3.92;1.95;;;;;;;22.49;51.08;99243.66;10309467;28;20132;-65
2023/09/20 19:46:39;;;;;;;3.70;1.85;;;;;;;22.50;51.26;99249.88;10311060;28;20137;-63
2023/09/20 19:51:42;;;;;;;3.70;1.80;;;;;;;22.41;51.37;99239.34;10301588;28;20052;-64
2023/09/20 19:56:47;;;;;;;5.50;1.67;;;;;;;22.28;51.79;99236.75;10308058;28;20141;-64
2023/09/20 20:01:51;;;;;;;6.25;2.17;;;;;;;22.23;51.61;99229.31;10309780;28;20462;-63
2023/09/20 20:06:52;;;;;;;;;;;;;;;22.29;52.31;99240.28;10309537;28;20145;-63
2023/09/20 20:11:53;;;;;;;2.83;1.50;;;;;;;22.18;52.20;99226.41;10305316;28;19925;-64
2023/09/20 20:17:04;;;;;;;4.18;2.28;;;;;;;22.23;52.41;99239.28;10305582;28;20617;-62
2023/09/20 20:22:06;;;;;;;4.07;1.92;;;;;;;22.17;52.62;99230.19;10306535;28;20179;-63
2023/09/20 20:27:09;;;;;;;3.20;2.10;;;;;;;22.14;52.75;99233.34;10310063;28;20059;-64
2023/09/20 20:32:10;;;;;;;2.97;2.03;;;;;;;22.09;53.10;99238.59;10309882;28;20062;-63
2023/09/20 20:37:12;;;;;;;4.18;2.75;;;;;;;21.97;53.66;99221.44;10306136;28;20050;-63
2023/09/20 20:42:13;;;;;;;3.45;1.85;;;;;;;21.99;53.13;99225.59;10307447;28;20137;-63
2023/09/20 20:47:15;;;;;;;2.78;1.90;;;;;;;21.95;53.59;99231.66;10306865;28;20054;-64
2023/09/20 20:52:18;;;;;;;5.63;2.58;;;;;;;21.85;54.06;99219.44;10304960;28;20413;-62
2023/09/20 20:57:21;;;;;;;4.57;2.67;;;;;;;21.81;53.99;99218.25;10304157;28;20057;-63
2023/09/20 21:02:23;;;;;;;5.15;2.22;;;;;;;21.79;54.39;99225.75;10306321;28;20054;-64
2023/09/20 21:07:24;;;;;;;3.70;2.00;;;;;;;21.62;54.64;99203.81;10307835;28;20053;-63
2023/09/20 21:12:26;;;;;;;4.18;2.25;;;;;;;21.66;54.75;99215.03;10302512;28;20081;-63
2023/09/20 21:17:29;;;;;;;3.90;2.30;;;;;;;21.58;55.25;99209.91;10306093;28;20243;-65
2023/09/20 21:22:31;;;;;;;3.20;2.00;;;;;;;21.59;55.51;99212.41;10306367;28;20062;-63
2023/09/20 21:27:32;;;;;;;3.58;2.25;;;;;;;21.53;55.71;99203.28;10302536;28;20066;-63
2023/09/20 21:32:34;;;;;;;3.78;2.35;;;;;;;21.49;55.79;99206.63;10302692;28;20060;-63
2023/09/20 21:37:35;;;;;;;4.75;2.35;;;;;;;21.43;55.63;99202.91;10304944;28;20354;-64
2023/09/20 21:42:37;;;;;;;3.13;1.90;;;;;;;21.38;56.15;99194.63;10308138;28;20054;-63
2023/09/20 21:47:39;;;;;;;2.47;1.85;;;;;;;21.32;55.99;99190.09;10344482;28;20250;-63
2023/09/20 21:52:41;;;;;;;3.78;2.38;;;;;;;21.28;56.23;99186.16;10338811;28;20052;-65
2023/09/20 21:57:42;;;;;;;2.67;1.95;;;;;;;21.17;56.30;99179.59;10345181;28;20150;-63
2023/09/20 22:02:51;;;;;;;3.78;2.13;;;;;;;21.13;56.70;99173.75;10343675;28;20052;-62
2023/09/20 22:07:54;;;;;;;3.45;2.03;;;;;;;20.99;56.67;99166.81;10343188;28;20046;-65
2023/09/20 22:12:57;;;;;;;4.43;2.57;;;;;;;21.10;56.76;99186.91;10346449;28;20570;-64
2023/09/20 22:17:58;;;;;;;4.00;2.60;;;;;;;20.99;56.71;99185.72;10350635;28;20484;-64
2023/09/20 22:23:03;;;;;;;3.60;2.92;;;;;;;20.94;56.87;99178.28;10350822;28;20504;-63
2023/09/20 22:28:05;;;;;;;3.60;2.55;;;;;;;20.93;57.20;99183.91;10350741;28;20157;-63
2023/09/20 22:33:07;;;;;;;2.72;2.47;;;;;;;20.90;57.22;99177.03;10350666;28;20057;-63
2023/09/20 22:38:09;;;;;;;2.90;2.60;;;;;;;20.88;57.38;99175.59;10349481;28;20457;-63
2023/09/20 22:43:12;;;;;;;2.90;2.35;;;;;;;20.77;57.63;99161.72;10357509;28;20483;-63
2023/09/20 22:48:13;;;;;;;4.37;2.53;;;;;;;20.73;57.52;99160.50;10352744;28;20173;-63
2023/09/20 22:53:17;;;;;;;4.97;2.95;;;;;;;20.67;57.63;99155.94;10332487;28;20141;-64
2023/09/20 22:58:19;;;;;;;3.97;2.72;;;;;;;20.70;57.71;99158.22;10334080;28;20053;-64
2023/09/20 23:03:24;;;;;;;3.23;2.20;;;;;;;20.65;57.98;99152.59;10349615;28;20103;-62
2023/09/20 23:08:27;;;;;;;4.15;2.78;;;;;;;20.61;58.09;99148.66;10352031;28;20128;-64
2023/09/20 23:13:34;;;;;;;4.97;3.08;;;;;;;20.54;58.16;99137.09;10352734;28;20155;-63
2023/09/20 23:18:35;;;;;;;4.47;3.22;;;;;;;20.50;58.26;99144.78;10351083;28;21208;-64
2023/09/20 23:23:37;;;;;;;4.25;3.40;;;;;;;20.43;58.47;99136.72;10354117;28;20123;-64
2023/09/20 23:28:39;;;;;;;4.60;3.20;;;;;;;20.38;58.92;99131.09;10348479;28;20046;-63
2023/09/20 23:33:40;;;;;;;5.80;3.55;;;;;;;20.31;58.82;99124.91;10351046;28;20045;-63
2023/09/20 23:38:42;;;;;;;4.47;3.45;;;;;;;20.33;59.04;99128.22;10340329;28;20088;-63
2023/09/20 23:43:45;;;;;;;3.10;2.78;;;;;;;20.12;59.29;99105.88;10351768;28;20082;-64
2023/09/20 23:48:49;;;;;;;4.95;3.13;;;;;;;20.23;59.55;99133.25;10344716;28;20053;-62
2023/09/20 23:53:53;;;;;;;5.55;3.10;;;;;;;20.11;59.80;99117.69;10348881;28;20132;-62
2023/09/20 23:58:55;;;;;;;4.63;3.60;;;;;;;20.14;60.21;99117.28;10348525;28;20053;-63
